Time;durP1;ratioP1;P1;durP2;ratioP2;P2;SDS_P1;SDS_P2;PMS_P1;PMS_P2;Temp;Humidity;BMP_temperature;BMP_pressure;BME280_temperature;BME280_humidity;BME280_pressure;Samples;Min_cycle;Max_cycle;Signal;HPM_P1;HPM_P2
2023/06/30 00:00:36;;;;;;;6.78;3.28;;;;;;;27.48;39.43;98496.50;2060285;28;20065;-49
2023/06/30 00:01:48;;;;;;;2.85;2.45;;;;;;;27.39;38.96;98496.19;2064117;28;20045;-48
2023/06/30 00:02:48;;;;;;;7.07;2.75;;;;;;;27.35;40.02;98499.72;2060871;28;20042;-48
2023/06/30 00:03:50;;;;;;;5.38;3.13;;;;;;;27.36;39.66;98498.66;2061740;28;20046;-48
2023/06/30 00:04:51;;;;;;;8.85;3.08;;;;;;;27.38;39.91;98502.72;2061727;28;20053;-48
2023/06/30 00:05:53;;;;;;;4.97;3.13;;;;;;;27.39;39.18;98496.19;2061436;28;20140;-51
2023/06/30 00:06:56;;;;;;;4.32;3.13;;;;;;;27.39;39.88;98488.03;2064864;28;20440;-49
2023/06/30 00:07:59;;;;;;;3.72;3.00;;;;;;;27.46;39.60;98506.03;2063092;28;20133;-48
2023/06/30 00:08:59;;;;;;;3.72;2.80;;;;;;;27.49;39.75;98498.13;2062048;28;20054;-49
2023/06/30 00:10:02;;;;;;;3.45;2.88;;;;;;;27.54;39.75;98497.34;2060365;28;20137;-49
2023/06/30 00:11:03;;;;;;;6.90;3.17;;;;;;;27.56;39.63;98497.91;2064051;28;20057;-48
2023/06/30 00:12:05;;;;;;;3.05;2.30;;;;;;;27.53;39.73;98501.19;2062387;28;20054;-48
2023/06/30 00:13:06;;;;;;;4.60;3.15;;;;;;;27.48;39.60;98490.25;2062867;28;20713;-49
2023/06/30 00:14:08;;;;;;;3.90;2.83;;;;;;;27.51;39.85;98487.81;2064918;28;20137;-49
2023/06/30 00:15:09;;;;;;;5.18;3.08;;;;;;;27.49;39.89;98489.16;2062485;28;20046;-52
2023/06/30 00:16:11;;;;;;;3.50;2.38;;;;;;;27.48;39.95;98485.63;2061767;28;20428;-49
2023/06/30 00:17:12;;;;;;;5.50;2.50;;;;;;;27.49;40.17;98487.25;2064738;28;20042;-48
2023/06/30 00:18:14;;;;;;;5.10;2.90;;;;;;;27.42;39.76;98474.97;2063605;28;20080;-52
2023/06/30 00:19:15;;;;;;;5.35;3.17;;;;;;;27.44;40.07;98476.31;2064537;28;20050;-51
2023/06/30 00:20:17;;;;;;;3.70;2.97;;;;;;;27.43;40.19;98479.31;2062236;28;20049;-48
2023/06/30 00:21:18;;;;;;;5.70;2.67;;;;;;;27.42;39.96;98475.78;2062824;28;20060;-49
2023/06/30 00:22:22;;;;;;;3.85;2.95;;;;;;;27.40;40.06;98476.03;2063027;28;20060;-49
2023/06/30 00:23:27;;;;;;;4.88;2.95;;;;;;;27.42;40.34;98470.34;2061753;28;20065;-50
2023/06/30 00:24:29;;;;;;;4.32;3.00;;;;;;;27.43;39.92;98482.06;2064302;28;20050;-48
2023/06/30 00:25:30;;;;;;;3.95;2.65;;;;;;;27.46;40.24;98482.31;2063450;28;20609;-51
2023/06/30 00:26:32;;;;;;;3.88;3.10;;;;;;;27.52;40.14;98469.56;2062830;28;20051;-50
2023/06/30 00:27:32;;;;;;;5.68;3.10;;;;;;;27.56;40.03;98468.75;2064529;28;20623;-48
2023/06/30 00:28:34;;;;;;;5.25;2.10;;;;;;;27.60;39.72;98471.75;2061281;28;20060;-50
2023/06/30 00:29:35;;;;;;;3.60;2.47;;;;;;;27.62;40.06;98466.88;2064582;28;20054;-48
2023/06/30 00:30:37;;;;;;;3.30;2.47;;;;;;;27.62;39.94;98462.25;2062973;28;20058;-48
2023/06/30 00:31:38;;;;;;;4.07;3.00;;;;;;;27.67;40.02;98466.09;2064842;28;20053;-48
2023/06/30 00:32:40;;;;;;;4.35;2.60;;;;;;;27.69;40.00;98470.16;2065263;28;20514;-48
2023/06/30 00:33:40;;;;;;;4.85;2.17;;;;;;;27.70;39.93;98462.81;2063703;28;20058;-47
2023/06/30 00:34:42;;;;;;;3.35;2.72;;;;;;;27.70;40.32;98463.63;2063948;28;20057;-48
2023/06/30 00:35:43;;;;;;;4.13;2.63;;;;;;;27.71;40.30;98464.44;2062794;28;20519;-47
2023/06/30 00:36:45;;;;;;;4.53;2.70;;;;;;;27.72;40.66;98469.66;2062920;28;20042;-48
2023/06/30 00:37:48;;;;;;;2.92;2.13;;;;;;;27.74;40.05;98464.72;2063636;28;20085;-49
2023/06/30 00:38:51;;;;;;;4.88;2.50;;;;;;;27.74;40.46;98472.09;2063301;28;20061;-48
2023/06/30 00:39:52;;;;;;;3.65;2.60;;;;;;;27.74;40.30;98472.91;2063578;28;20054;-48
2023/06/30 00:40:53;;;;;;;4.05;3.17;;;;;;;27.75;40.19;98471.84;2065652;28;20050;-48
2023/06/30 00:41:54;;;;;;;4.50;2.67;;;;;;;27.71;40.34;98473.44;2065738;28;20073;-49
2023/06/30 00:42:56;;;;;;;5.00;2.70;;;;;;;27.65;39.98;98469.06;2064169;28;20529;-50
2023/06/30 00:43:58;;;;;;;4.20;2.92;;;;;;;27.59;39.79;98464.69;2065742;28;20050;-49
2023/06/30 00:45:00;;;;;;;3.05;2.72;;;;;;;27.59;39.82;98465.50;2064214;28;20054;-49
2023/06/30 00:46:01;;;;;;;4.18;3.08;;;;;;;27.58;39.76;98468.47;2063101;28;20050;-47
2023/06/30 00:47:04;;;;;;;4.78;2.75;;;;;;;27.57;39.75;98466.84;2065080;28;20049;-53
2023/06/30 00:48:06;;;;;;;4.10;2.63;;;;;;;27.60;39.53;98463.59;2064265;28;20058;-49
2023/06/30 00:49:07;;;;;;;3.63;2.55;;;;;;;27.62;39.75;98464.97;2064571;28;20069;-50
2023/06/30 00:50:10;;;;;;;4.13;3.00;;;;;;;27.66;39.91;98465.25;2065047;28;20660;-50
2023/06/30 00:51:13;;;;;;;4.65;2.65;;;;;;;27.68;39.37;98459.53;2065283;28;20073;-51
2023/06/30 00:52:14;;;;;;;4.30;3.10;;;;;;;27.70;39.57;98462.81;2065488;28;20085;-49
2023/06/30 00:53:18;;;;;;;3.80;2.60;;;;;;;27.70;39.81;98463.63;2065524;28;20050;-48
2023/06/30 00:54:19;;;;;;;4.82;3.35;;;;;;;27.68;39.84;98454.09;2060743;28;20050;-47
2023/06/30 00:55:21;;;;;;;3.30;2.33;;;;;;;27.71;39.60;98456.28;2066140;28;20085;-47
2023/06/30 00:56:21;;;;;;;5.07;2.60;;;;;;;27.71;39.71;98467.16;2064091;28;20045;-52
2023/06/30 00:57:23;;;;;;;4.22;2.50;;;;;;;27.73;39.68;98470.47;2062193;28;20050;-52
2023/06/30 00:58:24;;;;;;;4.13;2.42;;;;;;;27.73;39.64;98465.81;2066153;28;20057;-51
2023/06/30 00:59:26;;;;;;;3.67;2.72;;;;;;;27.72;39.76;98466.06;2063766;28;20132;-52
2023/06/30 01:00:27;;;;;;;5.40;2.65;;;;;;;27.68;39.56;98467.72;2061070;28;20061;-51
2023/06/30 01:01:35;;;;;;;5.40;2.60;;;;;;;27.66;39.83;98458.97;2063965;28;20050;-47
2023/06/30 01:02:43;;;;;;;5.03;2.83;;;;;;;27.70;39.51;98460.09;2063623;28;20049;-48
2023/06/30 01:03:50;;;;;;;10.75;4.32;;;;;;;27.71;39.78;98457.09;2062075;28;20129;-49
2023/06/30 01:05:00;;;;;;;3.95;2.63;;;;;;;27.74;39.94;98463.91;2066122;28;20077;-49
2023/06/30 01:06:10;;;;;;;2.72;2.40;;;;;;;27.75;39.81;98457.38;2063892;28;20673;-49
2023/06/30 01:07:19;;;;;;;4.15;2.47;;;;;;;27.76;41.42;98459.84;2064514;28;20052;-50
2023/06/30 01:08:29;;;;;;;4.72;2.97;;;;;;;27.75;40.65;98452.75;2061566;28;20866;-48
2023/06/30 01:09:36;;;;;;;4.35;2.97;;;;;;;27.75;40.57;98460.09;2066043;28;20678;-50
2023/06/30 01:10:39;;;;;;;3.22;2.92;;;;;;;27.76;40.42;98454.38;2063693;28;20630;-49
2023/06/30 01:11:42;;;;;;;5.90;3.17;;;;;;;27.78;40.47;98452.22;2063330;28;20049;-51
2023/06/30 01:12:45;;;;;;;3.78;2.78;;;;;;;27.80;40.60;98452.81;2066178;28;20045;-47
2023/06/30 01:13:48;;;;;;;2.83;2.55;;;;;;;27.80;40.76;98450.09;2065981;28;20085;-47
2023/06/30 01:14:50;;;;;;;3.92;2.60;;;;;;;27.79;40.91;98459.31;2064447;28;20559;-50
2023/06/30 01:15:54;;;;;;;7.07;2.90;;;;;;;27.75;41.13;98444.59;2065337;28;20056;-51
2023/06/30 01:16:56;;;;;;;5.85;3.33;;;;;;;27.68;40.74;98452.19;2064262;28;20524;-51
2023/06/30 01:18:00;;;;;;;5.88;2.17;;;;;;;27.63;41.23;98449.44;2052514;28;20054;-47
2023/06/30 01:19:03;;;;;;;4.68;2.78;;;;;;;27.56;41.22;98443.44;2064254;28;20058;-50
2023/06/30 01:20:10;;;;;;;3.58;2.50;;;;;;;27.60;41.15;98439.88;2066062;28;20397;-48
2023/06/30 01:21:13;;;;;;;4.18;2.60;;;;;;;27.67;41.21;98439.66;2065668;28;20041;-49
2023/06/30 01:22:20;;;;;;;3.28;2.65;;;;;;;27.71;41.17;98442.66;2062215;28;20467;-48
2023/06/30 01:23:31;;;;;;;3.83;2.63;;;;;;;27.70;41.11;98439.13;2064924;28;20075;-52
2023/06/30 01:24:35;;;;;;;4.70;2.88;;;;;;;27.69;41.27;98437.47;2065489;28;20077;-49
2023/06/30 01:25:36;;;;;;;4.95;2.75;;;;;;;27.67;41.37;98436.94;2061819;28;20076;-49
2023/06/30 01:26:39;;;;;;;3.78;2.92;;;;;;;27.67;41.18;98436.13;2061883;28;20128;-50
2023/06/30 01:27:42;;;;;;;5.78;3.35;;;;;;;27.68;41.21;98441.28;2065796;28;20096;-48
2023/06/30 01:28:44;;;;;;;3.63;2.63;;;;;;;27.66;41.23;98440.72;2064087;28;20659;-51
2023/06/30 01:29:45;;;;;;;2.97;2.50;;;;;;;27.66;41.16;98432.53;2062042;28;20050;-48
2023/06/30 01:30:48;;;;;;;3.13;2.78;;;;;;;27.68;41.14;98440.47;2063525;28;20061;-48
2023/06/30 01:31:49;;;;;;;4.22;3.08;;;;;;;27.70;41.02;98444.56;2065182;28;20050;-48
2023/06/30 01:32:54;;;;;;;4.32;3.22;;;;;;;27.72;41.55;98442.41;2065304;28;20042;-50
2023/06/30 01:33:55;;;;;;;3.65;2.63;;;;;;;27.74;41.38;98434.75;2064844;28;20049;-47
2023/06/30 01:34:57;;;;;;;3.65;2.83;;;;;;;27.77;42.06;98436.13;2065269;28;20046;-49
2023/06/30 01:35:58;;;;;;;4.45;2.90;;;;;;;27.79;41.96;98437.53;2064406;28;20042;-50
2023/06/30 01:37:00;;;;;;;4.88;2.65;;;;;;;27.80;41.63;98433.72;2064843;28;20069;-48
2023/06/30 01:38:02;;;;;;;3.17;2.80;;;;;;;27.81;41.68;98431.81;2066080;28;20049;-50
2023/06/30 01:39:05;;;;;;;3.25;2.55;;;;;;;27.81;41.41;98429.91;2065304;28;20045;-47
2023/06/30 01:40:07;;;;;;;5.60;2.78;;;;;;;27.81;41.54;98435.34;2064639;28;20037;-49
2023/06/30 01:41:09;;;;;;;3.55;2.60;;;;;;;27.79;41.33;98428.50;2063994;28;20043;-51
2023/06/30 01:42:10;;;;;;;3.13;2.58;;;;;;;27.77;41.19;98426.03;2065379;28;20504;-49
2023/06/30 01:43:13;;;;;;;3.85;2.90;;;;;;;27.78;41.25;98427.69;2065052;28;20046;-50
2023/06/30 01:44:14;;;;;;;3.28;2.40;;;;;;;27.79;41.11;98431.22;2063930;28;20042;-52
2023/06/30 01:45:17;;;;;;;2.97;2.67;;;;;;;27.81;41.40;98435.34;2063861;28;20146;-50
2023/06/30 01:46:19;;;;;;;5.38;2.47;;;;;;;27.78;41.43;98430.41;2062974;28;20112;-49
2023/06/30 01:47:21;;;;;;;3.88;2.60;;;;;;;27.74;41.31;98431.22;2064975;28;20046;-50
2023/06/30 01:48:22;;;;;;;4.18;2.30;;;;;;;27.72;41.11;98430.66;2064072;28;20084;-49
2023/06/30 01:49:24;;;;;;;4.72;2.70;;;;;;;27.72;41.51;98431.50;2061348;28;20096;-49
2023/06/30 01:50:29;;;;;;;2.78;2.45;;;;;;;27.72;41.27;98430.66;2064046;28;20077;-51
2023/06/30 01:51:31;;;;;;;4.95;3.03;;;;;;;27.75;41.36;98436.41;2063680;28;20061;-47
2023/06/30 01:52:32;;;;;;;3.58;2.53;;;;;;;27.77;42.51;98427.94;2065188;28;20070;-51
2023/06/30 01:53:35;;;;;;;5.15;2.78;;;;;;;27.80;42.42;98433.72;2063104;28;20533;-48
2023/06/30 01:54:37;;;;;;;3.25;2.80;;;;;;;27.81;41.65;98435.34;2061701;28;20092;-49
2023/06/30 01:55:40;;;;;;;3.60;2.83;;;;;;;27.82;41.48;98436.97;2064090;28;20892;-49
2023/06/30 01:56:48;;;;;;;8.73;3.53;;;;;;;27.81;41.74;98438.09;2061737;28;20061;-48
2023/06/30 01:57:49;;;;;;;4.15;2.63;;;;;;;27.79;41.49;98429.34;2066016;28;20525;-47
2023/06/30 01:58:50;;;;;;;4.00;2.45;;;;;;;27.80;41.57;98433.72;2063967;28;20050;-49
2023/06/30 01:59:52;;;;;;;6.53;2.92;;;;;;;27.80;41.40;98433.72;2061565;28;20058;-50
2023/06/30 02:00:53;;;;;;;5.75;3.03;;;;;;;27.81;41.32;98429.91;2063098;28;20046;-50
2023/06/30 02:01:55;;;;;;;4.13;2.78;;;;;;;27.80;41.54;98435.59;2064293;28;20064;-49
2023/06/30 02:02:57;;;;;;;3.40;2.28;;;;;;;27.80;41.54;98433.72;2062770;28;20045;-47
2023/06/30 02:03:59;;;;;;;3.45;2.40;;;;;;;27.79;41.48;98433.94;2064914;28;20069;-51
2023/06/30 02:05:00;;;;;;;4.47;3.03;;;;;;;27.82;41.28;98436.16;2064687;28;20042;-51
2023/06/30 02:06:03;;;;;;;4.22;2.45;;;;;;;27.80;41.25;98435.59;2067289;28;20100;-49
2023/06/30 02:07:04;;;;;;;3.65;2.63;;;;;;;27.78;41.31;98440.50;2064062;28;20057;-50
2023/06/30 02:08:06;;;;;;;3.75;2.60;;;;;;;27.79;41.16;98433.94;2064830;28;20081;-48
2023/06/30 02:09:06;;;;;;;4.05;2.80;;;;;;;27.81;41.35;98435.34;2064710;28;20052;-50
2023/06/30 02:10:10;;;;;;;4.75;2.42;;;;;;;27.83;41.38;98430.47;2065811;28;20140;-50
2023/06/30 02:11:11;;;;;;;10.80;3.03;;;;;;;27.80;41.28;98432.88;2065191;28;20444;-47
2023/06/30 02:12:13;;;;;;;3.90;3.10;;;;;;;27.82;41.30;98434.25;2064999;28;20048;-47
2023/06/30 02:13:14;;;;;;;3.67;2.60;;;;;;;27.81;41.10;98429.91;2065115;28;20450;-50
2023/06/30 02:14:16;;;;;;;3.95;2.85;;;;;;;27.83;41.34;98440.53;2064737;28;20054;-49
2023/06/30 02:15:17;;;;;;;3.22;2.60;;;;;;;27.83;41.40;98440.53;2064355;28;20083;-50
2023/06/30 02:16:19;;;;;;;6.10;2.70;;;;;;;27.82;41.45;98430.72;2065278;28;20053;-48
2023/06/30 02:17:26;;;;;;;5.50;2.40;;;;;;;27.82;41.57;98436.97;2065870;28;20053;-50
2023/06/30 02:18:28;;;;;;;2.67;2.38;;;;;;;27.84;41.55;98436.72;2064842;28;20045;-53
2023/06/30 02:19:29;;;;;;;3.75;2.08;;;;;;;27.84;41.66;98434.00;2061833;28;20061;-50
2023/06/30 02:20:32;;;;;;;3.08;2.47;;;;;;;27.84;41.58;98426.63;2066614;28;20056;-51
2023/06/30 02:21:33;;;;;;;4.47;2.97;;;;;;;27.84;41.66;98426.63;2064935;28;20065;-49
2023/06/30 02:22:35;;;;;;;2.95;2.55;;;;;;;27.85;41.66;98430.19;2063969;28;20054;-49
2023/06/30 02:23:35;;;;;;;3.60;2.35;;;;;;;27.84;41.97;98423.91;2064592;28;20088;-49
2023/06/30 02:24:37;;;;;;;4.18;2.47;;;;;;;27.82;41.97;98423.34;2063709;28;20046;-49
2023/06/30 02:25:39;;;;;;;3.65;2.88;;;;;;;27.76;42.64;98424.41;2064673;28;20049;-50
2023/06/30 02:26:41;;;;;;;4.50;2.63;;;;;;;27.73;42.30;98422.22;2064279;28;20053;-51
2023/06/30 02:27:45;;;;;;;6.68;3.20;;;;;;;27.66;42.50;98418.91;2062875;28;20226;-48
2023/06/30 02:28:46;;;;;;;4.82;2.88;;;;;;;27.70;42.62;98424.69;2065719;28;20061;-50
2023/06/30 02:29:47;;;;;;;4.82;2.63;;;;;;;27.72;42.84;98419.75;2063949;28;20069;-51
2023/06/30 02:30:49;;;;;;;3.17;2.22;;;;;;;27.74;42.51;98415.69;2064495;28;20045;-49
2023/06/30 02:31:50;;;;;;;3.88;2.63;;;;;;;27.76;42.29;98421.69;2066430;28;20542;-50
2023/06/30 02:32:53;;;;;;;6.03;2.60;;;;;;;27.76;42.45;98413.50;2063175;28;20049;-47
2023/06/30 02:33:54;;;;;;;3.80;2.88;;;;;;;27.78;42.57;98416.78;2064063;28;20407;-50
2023/06/30 02:34:56;;;;;;;4.63;2.45;;;;;;;27.80;42.63;98419.25;2054014;28;20061;-47
2023/06/30 02:35:56;;;;;;;4.63;2.78;;;;;;;27.79;42.29;98417.59;2060912;28;20527;-48
2023/06/30 02:37:00;;;;;;;4.97;2.60;;;;;;;27.80;42.65;98411.09;2064271;28;20128;-50
2023/06/30 02:38:03;;;;;;;4.90;2.55;;;;;;;27.82;42.61;98417.91;2062078;28;21313;-48
2023/06/30 02:39:05;;;;;;;7.10;3.00;;;;;;;27.80;42.54;98417.38;2066237;28;20045;-48
2023/06/30 02:40:08;;;;;;;3.53;2.40;;;;;;;27.77;42.58;98414.31;2062880;28;20488;-49
2023/06/30 02:41:11;;;;;;;4.50;2.53;;;;;;;27.77;42.33;98412.41;2063855;28;20420;-49
2023/06/30 02:42:12;;;;;;;3.13;2.35;;;;;;;27.75;42.38;98409.16;2063690;28;20045;-50
2023/06/30 02:43:14;;;;;;;3.10;2.30;;;;;;;27.76;42.46;98416.22;2061981;28;20255;-52
2023/06/30 02:44:15;;;;;;;3.30;3.00;;;;;;;27.77;42.23;98408.88;2065535;28;20053;-47
2023/06/30 02:45:17;;;;;;;3.15;2.85;;;;;;;27.75;42.52;98409.16;2063272;28;20574;-47
2023/06/30 02:46:18;;;;;;;6.40;2.80;;;;;;;27.70;43.04;98406.41;2063639;28;20566;-51
2023/06/30 02:47:20;;;;;;;3.05;2.45;;;;;;;27.65;43.01;98403.66;2065400;28;20088;-50
2023/06/30 02:48:21;;;;;;;2.75;2.22;;;;;;;27.69;42.70;98399.31;2063704;28;20050;-47
2023/06/30 02:49:23;;;;;;;3.08;2.60;;;;;;;27.74;42.92;98412.13;2062452;28;20084;-47
2023/06/30 02:50:29;;;;;;;4.95;2.72;;;;;;;27.73;42.90;98403.16;2062368;28;20077;-50
2023/06/30 02:51:31;;;;;;;3.42;2.75;;;;;;;27.78;42.87;98407.81;2064478;28;20152;-47
2023/06/30 02:52:32;;;;;;;4.15;2.83;;;;;;;27.78;42.81;98402.34;2065381;28;20046;-53
2023/06/30 02:53:34;;;;;;;3.35;2.47;;;;;;;27.78;42.54;98405.06;2062895;28;20606;-48
2023/06/30 02:54:35;;;;;;;2.85;2.42;;;;;;;27.79;42.89;98404.81;2066548;28;20049;-53
2023/06/30 02:55:37;;;;;;;3.53;2.83;;;;;;;27.80;42.86;98406.47;2064081;28;20497;-47
2023/06/30 02:56:39;;;;;;;3.33;2.45;;;;;;;27.80;42.84;98405.63;2064359;28;20050;-52
2023/06/30 02:57:41;;;;;;;3.60;2.63;;;;;;;27.79;43.09;98410.28;2064748;28;20042;-47
2023/06/30 02:58:42;;;;;;;3.50;2.97;;;;;;;27.78;42.96;98403.16;2064568;28;20053;-48
2023/06/30 02:59:44;;;;;;;3.65;2.60;;;;;;;27.80;42.94;98406.47;2063153;28;20723;-48
2023/06/30 03:00:44;;;;;;;4.13;2.53;;;;;;;27.81;43.08;98408.09;2067426;28;21011;-53
2023/06/30 03:01:46;;;;;;;3.15;2.45;;;;;;;27.82;43.34;98409.72;2063181;28;20141;-50
2023/06/30 03:02:47;;;;;;;2.90;2.55;;;;;;;27.83;43.21;98410.53;2064718;28;20128;-49
2023/06/30 03:03:49;;;;;;;2.90;2.60;;;;;;;27.83;43.05;98410.53;2064301;28;20053;-48
2023/06/30 03:04:50;;;;;;;5.55;2.90;;;;;;;27.81;42.78;98410.81;2064599;28;20050;-53
2023/06/30 03:05:52;;;;;;;4.32;2.80;;;;;;;27.80;42.88;98403.75;2063568;28;20064;-50
2023/06/30 03:06:53;;;;;;;5.45;2.35;;;;;;;27.84;42.79;98410.28;2064784;28;20042;-53
2023/06/30 03:07:55;;;;;;;3.70;2.80;;;;;;;27.82;42.82;98408.91;2065395;28;20072;-50
2023/06/30 03:08:55;;;;;;;3.90;2.92;;;;;;;27.82;42.82;98403.47;2065362;28;20080;-51
2023/06/30 03:09:57;;;;;;;4.22;2.85;;;;;;;27.83;42.99;98410.53;2065259;28;20037;-51
2023/06/30 03:10:58;;;;;;;2.67;2.15;;;;;;;27.82;42.97;98406.19;2064697;28;20065;-50
2023/06/30 03:12:01;;;;;;;3.45;2.25;;;;;;;27.84;43.14;98409.47;2066129;28;20120;-50
2023/06/30 03:13:03;;;;;;;4.93;2.20;;;;;;;27.84;43.14;98409.47;2061220;28;20454;-51
2023/06/30 03:14:04;;;;;;;3.60;2.90;;;;;;;27.83;42.90;98413.25;2066188;28;20046;-50
2023/06/30 03:15:06;;;;;;;3.80;2.60;;;;;;;27.84;43.00;98409.47;2067538;28;20443;-53
2023/06/30 03:16:08;;;;;;;7.97;2.63;;;;;;;27.83;43.11;98411.38;2061658;28;20092;-50
2023/06/30 03:17:09;;;;;;;2.63;2.22;;;;;;;27.84;43.21;98413.00;2064788;28;20118;-48
2023/06/30 03:18:10;;;;;;;3.72;2.53;;;;;;;27.84;43.08;98410.28;2064200;28;20042;-50
2023/06/30 03:19:11;;;;;;;4.13;2.53;;;;;;;27.84;42.86;98406.75;2064172;28;20050;-51
2023/06/30 03:20:13;;;;;;;3.10;2.58;;;;;;;27.84;42.96;98407.56;2063184;28;20064;-50
2023/06/30 03:21:14;;;;;;;3.65;2.70;;;;;;;27.84;43.17;98407.56;2063797;28;20046;-49
2023/06/30 03:22:16;;;;;;;5.07;2.60;;;;;;;27.84;43.01;98404.03;2066669;28;20046;-49
2023/06/30 03:23:18;;;;;;;3.00;2.70;;;;;;;27.84;42.95;98404.84;2062782;28;27910;-48
2023/06/30 03:24:20;;;;;;;4.28;2.92;;;;;;;27.83;42.96;98413.25;2063038;28;20200;-50
2023/06/30 03:25:21;;;;;;;3.58;2.35;;;;;;;27.83;42.51;98410.53;2062099;28;20073;-49
2023/06/30 03:26:24;;;;;;;3.70;2.63;;;;;;;27.84;42.99;98415.75;2064591;28;20054;-50
2023/06/30 03:27:26;;;;;;;3.67;2.92;;;;;;;27.84;42.77;98410.28;2064497;28;20128;-48
2023/06/30 03:28:28;;;;;;;2.95;2.00;;;;;;;27.84;43.06;98407.56;2060174;28;20146;-52
2023/06/30 03:29:29;;;;;;;3.15;2.33;;;;;;;27.85;42.88;98409.19;2063908;28;20070;-50
2023/06/30 03:30:31;;;;;;;3.42;2.58;;;;;;;27.87;42.83;98411.66;2064776;28;20043;-49
2023/06/30 03:31:31;;;;;;;3.25;2.63;;;;;;;27.83;42.92;98411.38;2064356;28;20053;-48
2023/06/30 03:32:33;;;;;;;2.95;2.25;;;;;;;27.83;42.93;98416.84;2062778;28;20595;-51
2023/06/30 03:33:34;;;;;;;2.47;2.22;;;;;;;27.82;42.96;98420.63;2060294;28;20054;-50
2023/06/30 03:34:36;;;;;;;6.50;2.35;;;;;;;27.81;42.64;98416.28;2063762;28;20048;-52
2023/06/30 03:35:37;;;;;;;3.33;2.78;;;;;;;27.82;42.98;98412.44;2061677;28;20129;-52
2023/06/30 03:36:39;;;;;;;3.30;2.83;;;;;;;27.81;42.80;98413.56;2061069;28;21415;-52
2023/06/30 03:37:40;;;;;;;4.20;2.42;;;;;;;27.79;42.96;98404.81;2061029;28;20046;-49
2023/06/30 03:38:42;;;;;;;6.40;3.22;;;;;;;27.80;42.99;98403.75;2061928;28;20481;-51
2023/06/30 03:39:42;;;;;;;7.10;3.33;;;;;;;27.78;42.88;98410.53;2061051;28;20046;-52
2023/06/30 03:40:44;;;;;;;2.78;2.13;;;;;;;27.78;43.00;98408.63;2063153;28;20145;-47
2023/06/30 03:41:45;;;;;;;5.18;3.30;;;;;;;27.79;42.74;98417.59;2060434;28;20052;-47
2023/06/30 03:42:48;;;;;;;4.22;2.38;;;;;;;27.79;43.17;98409.44;2064798;28;20108;-49
2023/06/30 03:43:49;;;;;;;3.63;2.88;;;;;;;27.79;43.29;98410.28;2062720;28;20042;-49
2023/06/30 03:44:51;;;;;;;6.88;3.00;;;;;;;27.80;43.44;98411.09;2064135;28;20045;-48
2023/06/30 03:45:52;;;;;;;3.10;2.53;;;;;;;27.81;43.24;98408.09;2063082;28;20088;-52
2023/06/30 03:46:54;;;;;;;3.83;2.90;;;;;;;27.84;43.44;98413.00;2060586;28;20046;-50
2023/06/30 03:47:55;;;;;;;4.72;3.13;;;;;;;27.81;43.26;98408.09;2062006;28;20100;-51
2023/06/30 03:48:57;;;;;;;3.65;2.20;;;;;;;27.83;43.31;98416.00;2062297;28;20077;-48
2023/06/30 03:49:58;;;;;;;4.38;2.92;;;;;;;27.81;43.24;98413.56;2061561;28;20187;-50
2023/06/30 03:51:00;;;;;;;4.43;2.90;;;;;;;27.80;43.16;98409.19;2062636;28;20501;-52
2023/06/30 03:52:01;;;;;;;5.40;2.47;;;;;;;27.81;42.95;98415.47;2062913;28;20050;-48
2023/06/30 03:53:03;;;;;;;5.78;2.42;;;;;;;27.80;43.23;98411.94;2063455;28;20054;-51
2023/06/30 03:54:04;;;;;;;4.63;2.92;;;;;;;27.81;42.95;98413.56;2060187;28;20058;-50
2023/06/30 03:55:06;;;;;;;5.32;2.40;;;;;;;27.80;42.78;98398.31;2063389;28;20046;-47
2023/06/30 03:56:07;;;;;;;2.88;2.40;;;;;;;27.81;42.99;98404.56;2060721;28;20583;-50
2023/06/30 03:57:09;;;;;;;4.72;3.22;;;;;;;27.79;43.03;98404.81;2064320;28;20061;-51
2023/06/30 03:58:11;;;;;;;6.43;2.67;;;;;;;27.77;43.09;98406.16;2062718;28;20049;-48
2023/06/30 03:59:13;;;;;;;3.88;2.75;;;;;;;27.72;43.18;98406.13;2062455;28;20045;-53
2023/06/30 04:00:15;;;;;;;3.72;2.65;;;;;;;27.72;43.41;98406.97;2061041;28;20119;-50
2023/06/30 04:01:17;;;;;;;3.53;2.53;;;;;;;27.72;43.11;98403.41;2062787;28;22770;-52
2023/06/30 04:02:18;;;;;;;5.80;2.53;;;;;;;27.75;43.47;98403.72;2061572;28;20097;-51
2023/06/30 04:03:19;;;;;;;3.90;2.78;;;;;;;27.78;43.14;98399.63;2061451;28;20050;-49
2023/06/30 04:04:20;;;;;;;3.33;2.72;;;;;;;27.80;43.10;98401.03;2062995;28;20073;-49
2023/06/30 04:05:22;;;;;;;3.40;2.80;;;;;;;27.81;43.39;98401.84;2062104;28;20046;-48
2023/06/30 04:06:23;;;;;;;3.55;2.92;;;;;;;27.69;43.72;98399.31;2063541;28;20050;-49
2023/06/30 04:07:25;;;;;;;3.10;2.60;;;;;;;27.67;43.73;98390.59;2061165;28;20141;-51
2023/06/30 04:08:26;;;;;;;6.25;3.58;;;;;;;27.61;43.82;98395.22;2060815;28;20161;-52
2023/06/30 04:09:28;;;;;;;6.15;4.03;;;;;;;27.57;43.86;98387.84;2062663;28;20472;-51
2023/06/30 04:10:28;;;;;;;4.38;3.28;;;;;;;27.58;43.69;98381.31;2063830;28;20062;-50
2023/06/30 04:11:31;;;;;;;4.60;3.00;;;;;;;27.65;43.78;98381.06;2064258;28;20582;-49
2023/06/30 04:12:32;;;;;;;3.55;2.42;;;;;;;27.62;43.94;98387.88;2063970;28;20104;-50
2023/06/30 04:13:35;;;;;;;3.20;2.83;;;;;;;27.61;44.00;98387.06;2061596;28;20050;-49
2023/06/30 04:14:36;;;;;;;5.25;2.92;;;;;;;27.67;44.15;98389.78;2063333;28;20050;-49
2023/06/30 04:15:37;;;;;;;3.78;2.25;;;;;;;27.71;43.58;98378.06;2065655;28;20390;-48
2023/06/30 04:16:38;;;;;;;3.63;2.92;;;;;;;27.74;43.60;98380.25;2065168;28;20998;-48
2023/06/30 04:17:40;;;;;;;5.65;2.47;;;;;;;27.77;43.75;98378.91;2065531;28;20050;-47
2023/06/30 04:18:41;;;;;;;2.88;2.40;;;;;;;27.75;43.93;98373.72;2064419;28;20046;-50
2023/06/30 04:19:43;;;;;;;4.30;2.70;;;;;;;27.75;43.97;98375.63;2065630;28;20302;-47
2023/06/30 04:20:44;;;;;;;5.82;2.70;;;;;;;27.65;44.18;98376.44;2064313;28;20053;-49
2023/06/30 04:21:47;;;;;;;6.18;2.75;;;;;;;27.58;44.52;98376.69;2064768;28;20085;-50
2023/06/30 04:22:48;;;;;;;6.07;3.05;;;;;;;27.54;44.50;98378.31;2064685;28;20161;-52
2023/06/30 04:23:50;;;;;;;3.90;2.63;;;;;;;27.52;44.28;98377.75;2065400;28;20171;-49
2023/06/30 04:24:51;;;;;;;4.38;2.90;;;;;;;27.57;44.30;98375.03;2064018;28;20080;-51
2023/06/30 04:25:53;;;;;;;3.83;2.67;;;;;;;27.64;44.00;98377.53;2064224;28;20065;-47
2023/06/30 04:26:55;;;;;;;3.80;2.70;;;;;;;27.64;44.16;98385.69;2064097;28;20054;-50
2023/06/30 04:27:57;;;;;;;4.30;2.95;;;;;;;27.67;44.26;98381.63;2065345;28;20081;-50
2023/06/30 04:28:59;;;;;;;4.30;3.08;;;;;;;27.69;44.22;98385.69;2066725;28;20073;-50
2023/06/30 04:30:01;;;;;;;5.00;3.30;;;;;;;27.70;44.17;98381.91;2064765;28;20777;-49
2023/06/30 04:31:03;;;;;;;4.22;2.53;;;;;;;27.71;44.16;98388.97;2066999;28;20164;-50
2023/06/30 04:32:06;;;;;;;6.63;2.97;;;;;;;27.72;44.15;98384.31;2063745;28;20046;-50
2023/06/30 04:33:07;;;;;;;2.97;2.67;;;;;;;27.73;44.07;98386.81;2065380;28;20046;-47
2023/06/30 04:34:08;;;;;;;4.65;2.50;;;;;;;27.73;43.55;98381.34;2065423;28;20049;-48
2023/06/30 04:35:09;;;;;;;3.38;2.47;;;;;;;27.73;44.14;98385.97;2063402;28;20042;-50
2023/06/30 04:36:11;;;;;;;4.18;2.47;;;;;;;27.74;44.08;98388.44;2064258;28;20468;-50
2023/06/30 04:37:13;;;;;;;3.90;2.55;;;;;;;27.75;44.10;98390.09;2067429;28;20042;-48
2023/06/30 04:38:15;;;;;;;3.47;2.72;;;;;;;27.74;44.12;98387.63;2062352;28;20089;-50
2023/06/30 04:39:15;;;;;;;4.72;2.90;;;;;;;27.72;44.01;98379.72;2064631;28;20054;-48
2023/06/30 04:40:17;;;;;;;5.07;2.50;;;;;;;27.73;44.06;98377.81;2065428;28;20522;-48
2023/06/30 04:41:18;;;;;;;3.03;2.67;;;;;;;27.74;43.88;98377.53;2065516;28;20054;-49
2023/06/30 04:42:20;;;;;;;4.00;2.80;;;;;;;27.75;43.99;98376.47;2064726;28;20152;-48
2023/06/30 04:43:21;;;;;;;7.03;2.90;;;;;;;27.75;43.75;98381.91;2064322;28;20057;-49
2023/06/30 04:44:24;;;;;;;4.60;2.70;;;;;;;27.76;43.90;98375.34;2064420;28;20053;-49
2023/06/30 04:45:25;;;;;;;3.95;2.63;;;;;;;27.75;43.78;98376.47;2065714;28;20054;-47
2023/06/30 04:46:28;;;;;;;4.72;2.47;;;;;;;27.77;43.87;98370.72;2062015;28;20054;-50
2023/06/30 04:47:29;;;;;;;12.55;3.80;;;;;;;27.77;43.88;98368.81;2064694;28;20050;-53
2023/06/30 04:48:30;;;;;;;5.00;3.03;;;;;;;27.78;43.72;98366.91;2062544;28;20285;-50
2023/06/30 04:49:31;;;;;;;3.55;2.47;;;;;;;27.76;44.16;98364.47;2066709;28;20061;-50
2023/06/30 04:50:33;;;;;;;5.47;3.25;;;;;;;27.77;43.63;98359.81;2066457;28;20057;-51
2023/06/30 04:51:35;;;;;;;10.30;3.85;;;;;;;27.76;43.87;98350.81;2065549;28;20054;-50
2023/06/30 04:52:37;;;;;;;4.03;2.67;;;;;;;27.77;44.08;98348.91;2064064;28;20189;-53